Warrior — NA27 — position and weather

sailwx.info

Track history (hours):
 
Tides and Currents Weather Stations Pressure Air Temp Water Temp Dewpoint Dewpoint Depression Visibility Wind Speed Wind Dir Waves Ship Positions

Warrior

Last reported at 2017-Oct-17 13:42 UTC. Time now 2017-Oct-20 12:40 UTC.
Position N 38°59' W 076°29'.

Length 14 m.

Type: Sailing vessel. MMSI: 369970067.

Date/timePositionNaut miles runAvg speedWind from/ knotsBaromVisibWave heightAir tempDewpointWater temp
2017-Oct-17 13:42N 38°59' W 076°29'1 2.5
2017-Oct-17 13:30N 38°59' W 076°28'0 0.2
2017-Oct-17 12:59N 38°59' W 076°28'  
2017-Oct-14 18:36N 38°59' W 076°29'0 0.0
2017-Oct-14 18:30N 38°59' W 076°29'0 0.7
2017-Oct-14 18:00N 38°59' W 076°29'0 0.2
2017-Oct-14 17:30N 38°59' W 076°29'1 1.5
2017-Oct-14 17:00N 38°59' W 076°29'1 1.9
2017-Oct-14 16:30N 38°58' W 076°28'3 5.5
2017-Oct-14 16:00N 38°57' W 076°24'0 0.7
2017-Oct-14 15:30N 38°57' W 076°25'0 0.7
2017-Oct-14 15:00N 38°58' W 076°24'1 1.4
2017-Oct-14 14:30N 38°57' W 076°24'1 1.7
2017-Oct-14 14:00N 38°58' W 076°25'1 1.3
2017-Oct-14 13:30N 38°57' W 076°25'1 2.0
2017-Oct-14 13:00N 38°56' W 076°25'1 2.2
2017-Oct-14 12:30N 38°55' W 076°25'3 0.3
2017-Oct-14 02:31N 38°52' W 076°25'0 5.1
2017-Oct-14 02:30N 38°52' W 076°25'2 4.1
2017-Oct-14 02:00N 38°54' W 076°23'3 2.7
2017-Oct-14 00:58N 38°56' W 076°25'0 0.1
2017-Oct-14 00:29N 38°56' W 076°25'0 0.5
2017-Oct-14 00:00N 38°56' W 076°26'1 1.5
2017-Oct-13 23:20N 38°57' W 076°26'1 3.3
2017-Oct-13 23:00N 38°58' W 076°27'2 3.4
2017-Oct-13 22:29N 38°59' W 076°29'0 0.0
2017-Oct-13 21:59N 38°59' W 076°29'0 0.0
2017-Oct-13 21:29N 38°59' W 076°29'0 0.0
2017-Oct-13 20:59N 38°59' W 076°29'0 0.0
2017-Oct-13 20:29N 38°59' W 076°29'0 0.0
2017-Oct-13 19:59N 38°59' W 076°29'0 0.0
2017-Oct-13 19:29N 38°59' W 076°29'0 0.0
2017-Oct-13 18:59N 38°59' W 076°29'0 0.0
2017-Oct-13 17:25N 38°59' W 076°29'0 0.0
2017-Oct-12 22:50N 38°59' W 076°29'0 0.7
2017-Oct-12 22:30N 38°59' W 076°29'1 1.9
2017-Oct-12 22:00N 38°58' W 076°28'1 2.1
2017-Oct-12 21:30N 38°58' W 076°27'2 3.4
2017-Oct-12 21:00N 38°59' W 076°29'0 0.3
2017-Oct-12 20:30N 38°59' W 076°29'0 0.0
2017-Oct-12 20:00N 38°59' W 076°29'0 0.0
2017-Oct-11 22:40N 38°59' W 076°29'0 2.9
2017-Oct-11 22:30N 38°59' W 076°28'2 3.2
2017-Oct-11 22:00N 38°57' W 076°27'1 1.5
2017-Oct-11 21:30N 38°57' W 076°26'1 1.7
2017-Oct-11 21:00N 38°57' W 076°27'2 3.8
2017-Oct-11 20:28N 38°59' W 076°29'0 0.0
2017-Oct-11 19:58N 38°59' W 076°29'0 0.0
2017-Oct-10 22:46N 38°59' W 076°29'0 0.7
2017-Oct-10 22:30N 38°59' W 076°28'1 1.2
2017-Oct-10 21:59N 38°58' W 076°28'0 0.4
2017-Oct-10 21:30N 38°58' W 076°28'1 1.0
2017-Oct-10 21:00N 38°59' W 076°28'0 0.9
2017-Oct-10 20:30N 38°59' W 076°29'0 0.0
2017-Oct-09 22:32N 38°59' W 076°29'0 0.0
2017-Oct-09 22:29N 38°59' W 076°29'0 0.5
2017-Oct-09 22:00N 38°59' W 076°28'2 3.8
2017-Oct-09 21:30N 38°58' W 076°27'0 0.6
2017-Oct-09 21:00N 38°58' W 076°27'1 2.9
2017-Oct-09 20:30N 38°59' W 076°28'0 1.0
2017-Oct-09 20:00N 38°59' W 076°29'0 0.0
2017-Oct-09 19:30N 38°59' W 076°29'  
Track history (hours):
 
Tides and Currents Weather Stations Pressure Air Temp Water Temp Dewpoint Dewpoint Depression Visibility Wind Speed Wind Dir Waves Ship Positions

Warrior

Last reported at 2017-Oct-17 13:42 UTC. Time now 2017-Oct-20 12:40 UTC.
Position N 38°59' W 076°29'.

Length 14 m.

Type: Sailing vessel. MMSI: 369970067.

Date/timePositionNaut miles runAvg speedWind from/ knotsBaromVisibWave heightAir tempDewpointWater temp
2017-Oct-17 13:42N 38°59' W 076°29'1 2.5
2017-Oct-17 13:30N 38°59' W 076°28'0 0.2
2017-Oct-17 12:59N 38°59' W 076°28'  
2017-Oct-14 18:36N 38°59' W 076°29'0 0.0
2017-Oct-14 18:30N 38°59' W 076°29'0 0.7
2017-Oct-14 18:00N 38°59' W 076°29'0 0.2
2017-Oct-14 17:30N 38°59' W 076°29'1 1.5
2017-Oct-14 17:00N 38°59' W 076°29'1 1.9
2017-Oct-14 16:30N 38°58' W 076°28'3 5.5
2017-Oct-14 16:00N 38°57' W 076°24'0 0.7
2017-Oct-14 15:30N 38°57' W 076°25'0 0.7
2017-Oct-14 15:00N 38°58' W 076°24'1 1.4
2017-Oct-14 14:30N 38°57' W 076°24'1 1.7
2017-Oct-14 14:00N 38°58' W 076°25'1 1.3
2017-Oct-14 13:30N 38°57' W 076°25'1 2.0
2017-Oct-14 13:00N 38°56' W 076°25'1 2.2
2017-Oct-14 12:30N 38°55' W 076°25'3 0.3
2017-Oct-14 02:31N 38°52' W 076°25'0 5.1
2017-Oct-14 02:30N 38°52' W 076°25'2 4.1
2017-Oct-14 02:00N 38°54' W 076°23'3 2.7
2017-Oct-14 00:58N 38°56' W 076°25'0 0.1
2017-Oct-14 00:29N 38°56' W 076°25'0 0.5
2017-Oct-14 00:00N 38°56' W 076°26'1 1.5
2017-Oct-13 23:20N 38°57' W 076°26'1 3.3
2017-Oct-13 23:00N 38°58' W 076°27'2 3.4
2017-Oct-13 22:29N 38°59' W 076°29'0 0.0
2017-Oct-13 21:59N 38°59' W 076°29'0 0.0
2017-Oct-13 21:29N 38°59' W 076°29'0 0.0
2017-Oct-13 20:59N 38°59' W 076°29'0 0.0
2017-Oct-13 20:29N 38°59' W 076°29'0 0.0
2017-Oct-13 19:59N 38°59' W 076°29'0 0.0
2017-Oct-13 19:29N 38°59' W 076°29'0 0.0
2017-Oct-13 18:59N 38°59' W 076°29'0 0.0
2017-Oct-13 17:25N 38°59' W 076°29'0 0.0
2017-Oct-12 22:50N 38°59' W 076°29'0 0.7
2017-Oct-12 22:30N 38°59' W 076°29'1 1.9
2017-Oct-12 22:00N 38°58' W 076°28'1 2.1
2017-Oct-12 21:30N 38°58' W 076°27'2 3.4
2017-Oct-12 21:00N 38°59' W 076°29'0 0.3
2017-Oct-12 20:30N 38°59' W 076°29'0 0.0
2017-Oct-12 20:00N 38°59' W 076°29'0 0.0
2017-Oct-11 22:40N 38°59' W 076°29'0 2.9
2017-Oct-11 22:30N 38°59' W 076°28'2 3.2
2017-Oct-11 22:00N 38°57' W 076°27'1 1.5
2017-Oct-11 21:30N 38°57' W 076°26'1 1.7
2017-Oct-11 21:00N 38°57' W 076°27'2 3.8
2017-Oct-11 20:28N 38°59' W 076°29'0 0.0
2017-Oct-11 19:58N 38°59' W 076°29'0 0.0
2017-Oct-10 22:46N 38°59' W 076°29'0 0.7
2017-Oct-10 22:30N 38°59' W 076°28'1 1.2
2017-Oct-10 21:59N 38°58' W 076°28'0 0.4
2017-Oct-10 21:30N 38°58' W 076°28'1 1.0
2017-Oct-10 21:00N 38°59' W 076°28'0 0.9
2017-Oct-10 20:30N 38°59' W 076°29'0 0.0
2017-Oct-09 22:32N 38°59' W 076°29'0 0.0
2017-Oct-09 22:29N 38°59' W 076°29'0 0.5
2017-Oct-09 22:00N 38°59' W 076°28'2 3.8
2017-Oct-09 21:30N 38°58' W 076°27'0 0.6
2017-Oct-09 21:00N 38°58' W 076°27'1 2.9
2017-Oct-09 20:30N 38°59' W 076°28'0 1.0
2017-Oct-09 20:00N 38°59' W 076°29'0 0.0
2017-Oct-09 19:30N 38°59' W 076°29'  

Dump ship's entire track history